McCullers, North Carolina
Current Conditions -  °F | °C
As of 12:51 AM on Wednesday 22 Oct 2014 (Local Time) from KRDU Reporting Station
Scattered Clouds Scattered Clouds  
Wind Chill: 54°   Ceiling: Unl
Heat Index: 54°   Visibility: 10mi
Dew Point: 39°   Wind: 7mph
Humidity: 57%   Direction: NA
Pressure: 29.94"   Gusts: 18mph
Location:  35.6675°N, 78.6629°W
Report Text: KRDU 220451Z VRB06G16KT 10SM FEW075 SCT100 12/04 A2994 RMK AO2 SLP135 T01220039 402330106
Loading
Personal Weather Stations






























Interactive Weather Map
Tropical Storm Tracking
New forecast layout! Learn more

10-Day Weather Forecast

Advertisements
Track Severe Weather on mobile